Aktuální stav
Partly Cloudy
Conditions



Tlak
1014.92 (hPa) - 29.97 (inHG)
Viditelnost

10.0 (km) - 6.2 (míle)
   Teplota
25  °C
77°F
14  °C
Rosný bod
51  %
 Vlhkost
   Rychlost větru
2.7  m/s
6  mph
10  km/h
5  kts
   Směr větru
 20°
Severo severo
východ
   Leťiště
LKLN
Location Plzeň-Líně Airport 36 km (22.37 mi)
Metar :LKLN 131700Z AUTO 02005KT 300V090 9999 FEW044 BKN089 25/14 Q1015
Sat 13th August 18:00 pm